Terminal Aerodrome Forecast
Issued by NWS

Home | Current Version | Previous Version | Text Only | Print | Product List | Glossary On
Versions: 1 2 3 4 5 6 7 8 9 10 11 12 13
000
FTUS42 TJSJ 240539
TAFKPK
TAF
TKPK 240539Z 2406/2506 07010KT P6SM VCSH SCT018 SCT040
     FM241300 10014KT P6SM VCSH FEW018 SCT025
     FM242200 07010KT P6SM FEW018
      AMD NOT SKED TIL 241100=

USA.gov is the U.S. government's official web portal to all federal, state and local government web resources and services.